METAR Data
IDs: Format: Raw Decoded Include TAF

Data at: 1852 UTC 16 Oct 2021

KTFP 161835Z AUTO 05016G19KT 7SM CLR 24/07 A3026 RMK AO2 T02400070
KTFP 161815Z AUTO 03012KT 5SM CLR 24/08 A3026 RMK AO2 T02400077
KTFP 161755Z AUTO 02015G19KT 5SM CLR 24/09 A3027 RMK AO2 T02400085
KTFP 161735Z AUTO 05015G21KT 5SM CLR 24/08 A3028 RMK AO2 T02350079
KTFP 161715Z AUTO 04014G21KT 7SM CLR 23/08 A3028 RMK AO2 T02300081
KTFP 161655Z AUTO 04017G21KT 7SM CLR 23/09 A3028 RMK AO2 T02270085
KTFP 161635Z AUTO 05016G24KT 7SM CLR 22/09 A3028 RMK AO2 T02230088
KTFP 161615Z AUTO 05019G26KT 7SM CLR 22/09 A3028 RMK AO2 T02200088
KTFP 161555Z AUTO 05017G24KT 7SM CLR 22/09 A3028 RMK AO2 T02170089
KTFP 161535Z AUTO 05018G26KT 10SM CLR 21/09 A3028 RMK AO2 T02130085
KTFP 161515Z AUTO 06020G28KT 7SM CLR 21/09 A3027 RMK AO2 T02090087
KTFP 161455Z AUTO 05021G25KT 10SM CLR 20/09 A3026 RMK AO2 T02040086
KTFP 161435Z AUTO 05021G26KT 10SM CLR 20/09 A3026 RMK AO2 T02010086
KTFP 161415Z AUTO 05017G28KT 7SM CLR 20/09 A3026 RMK AO2 T02000087
KTFP 161355Z AUTO 05019G26KT 7SM CLR 20/09 A3026 RMK AO2 T01970086
KTFP 161335Z AUTO 04020G29KT 7SM CLR 20/09 A3024 RMK AO2 T01950089
KTFP 161315Z AUTO 05019G29KT 7SM SCT065 20/09 A3023 RMK AO2 T01950091
KTFP 161255Z AUTO 04021G28KT 7SM SCT055 20/09 A3023 RMK AO2 T01980093
KTFP 161235Z AUTO 05020G25KT 7SM BKN055 20/09 A3022 RMK AO2 T02010093
KTFP 161215Z AUTO 05022G27KT 7SM SCT055 SCT065 20/10 A3021 RMK AO2 T02020095
KTFP 161155Z AUTO 05020G26KT 10SM SCT050 SCT065 20/10 A3021 RMK AO2 T02040098
KTFP 161135Z AUTO 05021G26KT 7SM SCT050 21/10 A3020 RMK AO2 T02060101
KTFP 161115Z AUTO 05019G28KT 10SM SCT050 21/10 A3019 RMK AO2 T02080102
KTFP 161055Z AUTO 05023G29KT 10SM BKN050 21/10 A3018 RMK AO2 T02110103
KTFP 161035Z AUTO 05019G30KT 10SM SCT050 21/11 A3017 RMK AO2 T02130106
KTFP 161015Z AUTO 05021G26KT 7SM SCT050 22/11 A3016 RMK AO2 T02150112
KTFP 160955Z AUTO 04019G30KT 7SM BKN050 22/12 A3015 RMK AO2 T02160115
KTFP 160935Z AUTO 04020G28KT 7SM SCT048 SCT060 22/12 A3014 RMK AO2 T02180122
KTFP 160915Z AUTO 04022G29KT 7SM SCT048 SCT060 22/13 A3013 RMK AO2 T02200129
KTFP 160855Z AUTO 04018G28KT 7SM SCT048 SCT060 22/14 A3012 RMK AO2 T02220138
KTFP 160835Z AUTO 04020G32KT 7SM SCT050 23/14 A3011 RMK AO2 T02250140
KTFP 160815Z AUTO 03019G26KT 7SM BKN048 23/14 A3012 RMK AO2 LTG DSNT S T02280144
KTFP 160755Z AUTO 04017G23KT 7SM OVC048 23/15 A3012 RMK AO2 LTG DSNT S T02300148
KTFP 160735Z AUTO 04016G27KT 7SM BKN048 23/15 A3012 RMK AO2 LTG DSNT S T02320149
KTFP 160715Z AUTO 03019G27KT 7SM BKN048 24/15 A3011 RMK AO2 T02360151
KTFP 160655Z AUTO 05019G24KT 7SM BKN048 BKN060 24/16 A3011 RMK AO2 T02390156
KTFP 160635Z AUTO 05017G25KT 7SM OVC048 24/16 A3012 RMK AO2 T02400160
KTFP 160615Z AUTO 04018G25KT 7SM OVC046 24/16 A3011 RMK AO2 T02420163
KTFP 160555Z AUTO 05017G25KT 7SM OVC046 24/17 A3010 RMK AO2 T02440167
KTFP 160535Z AUTO 05017G24KT 7SM BKN044 25/17 A3010 RMK AO2 T02450174
KTFP 160515Z AUTO 04013G22KT 7SM SCT046 25/18 A3009 RMK AO2 T02460180
KTFP 160455Z AUTO 03014G21KT 7SM SCT041 SCT048 SCT055 25/19 A3007 RMK AO2 T02450186
KTFP 160435Z AUTO 03012KT 10SM BKN039 BKN048 25/19 A3008 RMK AO2 T02520190
KTFP 160415Z AUTO 05013G20KT 7SM SCT037 25/19 A3007 RMK AO2 T02520189
KTFP 160355Z AUTO 04016G22KT 7SM CLR 25/20 A3005 RMK AO2 T02520197
KTFP 160335Z AUTO 03013G17KT 7SM CLR 25/20 A3006 RMK AO2 T02540204
KTFP 160315Z AUTO 03012KT 7SM VCTS SCT039 25/21 A3005 RMK AO2 LTG DSNT W T02500209
KTFP 160255Z AUTO 02015KT 7SM SCT020 SCT028 SCT047 26/22 A3005 RMK AO2 LTG DSNT W T02560220
KTFP 160235Z AUTO 01012G21KT 7SM SCT020 SCT028 SCT045 27/25 A3003 RMK AO2 LTG DSNT W T02700246
KTFP 160215Z AUTO 00000KT 7SM CLR 27/25 A3000 RMK AO2 T02710250
KTFP 160155Z AUTO 15004KT 7SM CLR 27/25 A2997 RMK AO2 LTG DSNT W AND NW T02690250
KTFP 160135Z AUTO 17003KT 7SM CLR 27/25 A2996 RMK AO2 LTG DSNT W T02690250
KTFP 160115Z AUTO 15004KT 7SM CLR 27/25 A2995 RMK AO2 T02730250
KTFP 160055Z AUTO 13005KT 10SM CLR 27/25 A2993 RMK AO2 T02740248
KTFP 160035Z AUTO 16004KT 10SM CLR 28/25 A2994 RMK AO2 T02750246
KTFP 160015Z AUTO 20003KT 10SM CLR 28/25 A2994 RMK AO2 T02770249
KTFP 152355Z AUTO 14004KT 10SM CLR 28/25 A2991 RMK AO2 T02810251
KTFP 152335Z AUTO 14005KT 10SM CLR 28/25 A2991 RMK AO2 T02830251
KTFP 152315Z AUTO 15005KT 10SM CLR 29/25 A2992 RMK AO2 T02870250
KTFP 152255Z AUTO 17004KT 10SM CLR 29/25 A2992 RMK AO2 T02910249
KTFP 152235Z AUTO 15004KT 10SM CLR 29/25 A2990 RMK AO2 T02940248
KTFP 152215Z AUTO 16006KT 10SM CLR 30/25 A2990 RMK AO2 T02980248
KTFP 152155Z AUTO 17008KT 10SM CLR 31/25 A2990 RMK AO2 T03050248
KTFP 152135Z AUTO 16010KT 7SM CLR 31/25 A2989 RMK AO2 T03110250
KTFP 152115Z AUTO 16008KT 7SM CLR 31/25 A2989 RMK AO2 LTG DSNT W T03130253
KTFP 152055Z AUTO 16008KT 10SM CLR 32/25 A2988 RMK AO2 T03160249
KTFP 152035Z AUTO 16007KT 10SM CLR 32/25 A2989 RMK AO2 T03170251
KTFP 152015Z AUTO 17006KT 10SM CLR 32/25 A2990 RMK AO2 T03160253
KTFP 151955Z AUTO 15008KT 10SM CLR 32/26 A2989 RMK AO2 T03160255
KTFP 151935Z AUTO 18008KT 10SM CLR 32/26 A2990 RMK AO2 T03170255
KTFP 151915Z AUTO 16008KT 10SM SCT021 32/26 A2991 RMK AO2 T03190255
KTFP 151855Z AUTO 16007KT 7SM SCT021 32/26 A2991 RMK AO2 T03200257
KTFP 151835Z AUTO 16006KT 10SM SCT024 32/25 A2992 RMK AO2 T03180253
KTFP 151815Z AUTO 19004KT 10SM SCT024 32/25 A2993 RMK AO2 T03150253
KTFP 151755Z AUTO 20004KT 10SM SCT024 SCT031 SCT041 32/25 A2993 RMK AO2 T03160254
KTFP 151735Z AUTO 17007KT 10SM SCT022 SCT028 SCT041 32/25 A2993 RMK AO2 T03150254
KTFP 151715Z AUTO 20004KT 10SM SCT022 BKN028 BKN037 31/25 A2994 RMK AO2 T03100253
KTFP 151655Z AUTO 16005KT 10SM SCT022 BKN028 BKN034 31/25 A2994 RMK AO2 T03100251
KTFP 151635Z AUTO 18006KT 10SM SCT020 31/25 A2994 RMK AO2 T03130254
KTFP 151615Z AUTO 18007KT 10SM SCT020 31/25 A2994 RMK AO2 T03110253
KTFP 151555Z AUTO 19007KT 10SM SCT018 31/25 A2994 RMK AO2 T03090253
KTFP 151535Z AUTO 18008KT 10SM SCT018 30/25 A2994 RMK AO2 T03040251
KTFP 151515Z AUTO 18007KT 10SM SCT018 30/25 A2993 RMK AO2 T03010253
KTFP 151455Z AUTO 19007KT 10SM SCT018 30/25 A2993 RMK AO2 T02950253
KTFP 151435Z AUTO 19007KT 10SM SCT014 SCT019 29/26 A2992 RMK AO2 T02930257
KTFP 151415Z AUTO 18006KT 10SM SCT014 29/26 A2992 RMK AO2 T02900260
KTFP 151355Z AUTO 19004KT 7SM CLR 29/26 A2990 RMK AO2 T02850261
KTFP 151335Z AUTO 17003KT 7SM CLR 28/26 A2990 RMK AO2 T02750260
KTFP 151315Z AUTO 19003KT 5SM CLR 27/26 A2989 RMK AO2 T02670256
KTFP 151255Z AUTO 12004KT 5SM CLR 26/25 A2989 RMK AO2 T02640254
KTFP 151235Z AUTO 11003KT 5SM CLR 26/25 A2988 RMK AO2 T02630254
KTFP 151215Z AUTO 18006KT 4SM SCT022 SCT026 26/25 A2987 RMK AO2 T02620253
KTFP 151155Z AUTO 00000KT 5SM CLR 27/26 A2987 RMK AO2 T02650255
KTFP 151135Z AUTO 00000KT 5SM CLR 27/26 A2987 RMK AO2 T02650255
KTFP 151115Z AUTO 18006KT 5SM SCT016 SCT025 26/26 A2986 RMK AO2 T02640255
KTFP 151055Z AUTO 00000KT 5SM SCT016 27/26 A2986 RMK AO2 T02650255
KTFP 151035Z AUTO 16003KT 5SM SCT016 27/26 A2985 RMK AO2 T02660256
KTFP 151015Z AUTO 20003KT 5SM CLR 27/26 A2984 RMK AO2 T02660256
KTFP 150955Z AUTO 15003KT 5SM CLR 27/26 A2984 RMK AO2 T02680257
KTFP 150935Z AUTO 16004KT 5SM CLR 27/26 A2984 RMK AO2 T02690258
KTFP 150915Z AUTO 17005KT 5SM SCT024 27/26 A2984 RMK AO2 T02700258
KTFP 150855Z AUTO 18005KT 5SM SCT022 27/26 A2984 RMK AO2 T02690257
KTFP 150835Z AUTO 16005KT 5SM SCT022 27/26 A2984 RMK AO2 T02710259
KTFP 150815Z AUTO 17003KT 5SM SCT011 SCT022 SCT043 27/26 A2984 RMK AO2 T02740260
KTFP 150755Z AUTO 18004KT 7SM SCT043 28/26 A2984 RMK AO2 T02750260
KTFP 150735Z AUTO 17004KT 7SM SCT041 28/26 A2984 RMK AO2 T02750260
KTFP 150715Z AUTO 19005KT 7SM CLR 28/26 A2984 RMK AO2 T02750260
KTFP 150655Z AUTO 19004KT 7SM SCT013 SCT025 SCT035 28/26 A2984 RMK AO2 T02750260